sensor_id;sensor_type;location;lat;lon;timestamp;P1;durP1;ratioP1;P2;durP2;ratioP2
32321;SDS011;61553;48.994;8.940;2023-12-14T00:01:59;4.22;;;2.30;;
32321;SDS011;61553;48.994;8.940;2023-12-14T00:04:25;6.88;;;2.92;;
32321;SDS011;61553;48.994;8.940;2023-12-14T00:06:51;6.90;;;3.10;;
32321;SDS011;61553;48.994;8.940;2023-12-14T00:09:16;4.88;;;2.63;;
32321;SDS011;61553;48.994;8.940;2023-12-14T00:11:42;10.30;;;2.92;;
32321;SDS011;61553;48.994;8.940;2023-12-14T00:14:07;6.53;;;3.15;;
32321;SDS011;61553;48.994;8.940;2023-12-14T00:16:33;5.60;;;2.70;;
32321;SDS011;61553;48.994;8.940;2023-12-14T00:18:59;8.68;;;3.42;;
32321;SDS011;61553;48.994;8.940;2023-12-14T00:21:24;5.63;;;3.10;;
32321;SDS011;61553;48.994;8.940;2023-12-14T00:23:50;7.70;;;3.75;;
32321;SDS011;61553;48.994;8.940;2023-12-14T00:26:16;5.35;;;2.78;;
32321;SDS011;61553;48.994;8.940;2023-12-14T00:28:42;6.35;;;3.28;;
32321;SDS011;61553;48.994;8.940;2023-12-14T00:31:08;6.43;;;3.13;;
32321;SDS011;61553;48.994;8.940;2023-12-14T00:33:34;5.55;;;3.05;;
32321;SDS011;61553;48.994;8.940;2023-12-14T00:35:59;6.88;;;3.25;;
32321;SDS011;61553;48.994;8.940;2023-12-14T00:38:25;6.97;;;2.90;;
32321;SDS011;61553;48.994;8.940;2023-12-14T00:40:50;5.18;;;2.50;;
32321;SDS011;61553;48.994;8.940;2023-12-14T00:43:16;5.45;;;2.58;;
32321;SDS011;61553;48.994;8.940;2023-12-14T00:45:42;6.68;;;2.63;;
32321;SDS011;61553;48.994;8.940;2023-12-14T00:48:07;5.32;;;2.45;;
32321;SDS011;61553;48.994;8.940;2023-12-14T00:50:33;6.60;;;2.95;;
32321;SDS011;61553;48.994;8.940;2023-12-14T00:52:59;3.78;;;1.95;;
32321;SDS011;61553;48.994;8.940;2023-12-14T00:55:24;5.18;;;2.40;;
32321;SDS011;61553;48.994;8.940;2023-12-14T00:57:50;4.70;;;2.65;;
32321;SDS011;61553;48.994;8.940;2023-12-14T01:00:16;5.85;;;2.75;;
32321;SDS011;61553;48.994;8.940;2023-12-14T01:02:42;5.07;;;2.83;;
32321;SDS011;61553;48.994;8.940;2023-12-14T01:05:07;5.50;;;2.70;;
32321;SDS011;61553;48.994;8.940;2023-12-14T01:07:33;6.18;;;2.83;;
32321;SDS011;61553;48.994;8.940;2023-12-14T01:09:59;7.10;;;3.00;;
32321;SDS011;61553;48.994;8.940;2023-12-14T01:12:24;21.23;;;8.70;;
32321;SDS011;61553;48.994;8.940;2023-12-14T01:14:50;30.48;;;13.20;;
32321;SDS011;61553;48.994;8.940;2023-12-14T01:17:16;20.58;;;9.40;;
32321;SDS011;61553;48.994;8.940;2023-12-14T01:19:41;15.98;;;7.40;;
32321;SDS011;61553;48.994;8.940;2023-12-14T01:22:07;9.25;;;4.25;;
32321;SDS011;61553;48.994;8.940;2023-12-14T01:24:32;8.77;;;4.07;;
32321;SDS011;61553;48.994;8.940;2023-12-14T01:26:58;19.83;;;9.20;;
32321;SDS011;61553;48.994;8.940;2023-12-14T01:29:24;17.70;;;9.32;;
32321;SDS011;61553;48.994;8.940;2023-12-14T01:31:49;17.65;;;8.77;;
32321;SDS011;61553;48.994;8.940;2023-12-14T01:34:15;10.95;;;5.68;;
32321;SDS011;61553;48.994;8.940;2023-12-14T01:36:40;11.68;;;4.90;;
32321;SDS011;61553;48.994;8.940;2023-12-14T01:39:06;11.82;;;4.97;;
32321;SDS011;61553;48.994;8.940;2023-12-14T01:41:32;6.45;;;3.85;;
32321;SDS011;61553;48.994;8.940;2023-12-14T01:43:57;7.57;;;3.55;;
32321;SDS011;61553;48.994;8.940;2023-12-14T01:46:23;8.15;;;3.63;;
32321;SDS011;61553;48.994;8.940;2023-12-14T01:48:49;8.48;;;4.00;;
32321;SDS011;61553;48.994;8.940;2023-12-14T01:51:16;5.72;;;3.38;;
32321;SDS011;61553;48.994;8.940;2023-12-14T01:53:42;9.63;;;3.40;;
32321;SDS011;61553;48.994;8.940;2023-12-14T01:56:08;6.10;;;3.45;;
32321;SDS011;61553;48.994;8.940;2023-12-14T01:58:34;8.23;;;3.20;;
32321;SDS011;61553;48.994;8.940;2023-12-14T02:03:25;7.47;;;3.88;;
32321;SDS011;61553;48.994;8.940;2023-12-14T02:05:51;10.88;;;4.40;;
32321;SDS011;61553;48.994;8.940;2023-12-14T02:08:17;13.25;;;6.30;;
32321;SDS011;61553;48.994;8.940;2023-12-14T02:10:42;11.45;;;6.15;;
32321;SDS011;61553;48.994;8.940;2023-12-14T02:13:08;9.63;;;5.28;;
32321;SDS011;61553;48.994;8.940;2023-12-14T02:15:34;7.82;;;4.05;;
32321;SDS011;61553;48.994;8.940;2023-12-14T02:17:59;9.18;;;4.13;;
32321;SDS011;61553;48.994;8.940;2023-12-14T02:20:25;6.50;;;3.80;;
32321;SDS011;61553;48.994;8.940;2023-12-14T02:22:54;7.70;;;3.70;;
32321;SDS011;61553;48.994;8.940;2023-12-14T02:25:21;7.88;;;4.32;;
32321;SDS011;61553;48.994;8.940;2023-12-14T02:27:47;9.23;;;4.05;;
32321;SDS011;61553;48.994;8.940;2023-12-14T02:30:15;7.82;;;4.03;;
32321;SDS011;61553;48.994;8.940;2023-12-14T02:32:41;7.68;;;3.83;;
32321;SDS011;61553;48.994;8.940;2023-12-14T02:35:07;7.45;;;3.95;;
32321;SDS011;61553;48.994;8.940;2023-12-14T02:37:33;6.65;;;3.60;;
32321;SDS011;61553;48.994;8.940;2023-12-14T02:40:01;8.93;;;4.07;;
32321;SDS011;61553;48.994;8.940;2023-12-14T02:42:28;9.68;;;4.55;;
32321;SDS011;61553;48.994;8.940;2023-12-14T02:44:54;8.95;;;4.32;;
32321;SDS011;61553;48.994;8.940;2023-12-14T02:47:21;8.55;;;4.03;;
32321;SDS011;61553;48.994;8.940;2023-12-14T02:49:46;7.22;;;4.10;;
32321;SDS011;61553;48.994;8.940;2023-12-14T02:52:12;9.45;;;4.55;;
32321;SDS011;61553;48.994;8.940;2023-12-14T02:54:38;8.30;;;4.07;;
32321;SDS011;61553;48.994;8.940;2023-12-14T02:57:04;8.55;;;4.47;;
32321;SDS011;61553;48.994;8.940;2023-12-14T02:59:30;7.43;;;4.13;;
32321;SDS011;61553;48.994;8.940;2023-12-14T03:01:56;7.63;;;4.00;;
32321;SDS011;61553;48.994;8.940;2023-12-14T03:04:21;7.55;;;4.60;;
32321;SDS011;61553;48.994;8.940;2023-12-14T03:06:47;8.30;;;4.10;;
32321;SDS011;61553;48.994;8.940;2023-12-14T03:09:12;10.07;;;4.43;;
32321;SDS011;61553;48.994;8.940;2023-12-14T03:11:38;8.43;;;3.83;;
32321;SDS011;61553;48.994;8.940;2023-12-14T03:14:04;8.52;;;4.35;;
32321;SDS011;61553;48.994;8.940;2023-12-14T03:16:29;9.23;;;4.63;;
32321;SDS011;61553;48.994;8.940;2023-12-14T03:18:55;13.32;;;6.40;;
32321;SDS011;61553;48.994;8.940;2023-12-14T03:21:21;15.57;;;7.65;;
32321;SDS011;61553;48.994;8.940;2023-12-14T03:23:48;8.75;;;5.68;;
32321;SDS011;61553;48.994;8.940;2023-12-14T03:26:14;9.50;;;5.57;;
32321;SDS011;61553;48.994;8.940;2023-12-14T03:28:40;9.43;;;5.47;;
32321;SDS011;61553;48.994;8.940;2023-12-14T03:31:06;9.82;;;6.20;;
32321;SDS011;61553;48.994;8.940;2023-12-14T03:33:32;10.10;;;5.22;;
32321;SDS011;61553;48.994;8.940;2023-12-14T03:35:57;11.10;;;5.10;;
32321;SDS011;61553;48.994;8.940;2023-12-14T03:38:24;10.52;;;5.30;;
32321;SDS011;61553;48.994;8.940;2023-12-14T03:40:50;12.20;;;5.45;;
32321;SDS011;61553;48.994;8.940;2023-12-14T03:43:15;13.55;;;5.28;;
32321;SDS011;61553;48.994;8.940;2023-12-14T03:45:41;9.00;;;5.38;;
32321;SDS011;61553;48.994;8.940;2023-12-14T03:48:07;11.25;;;5.32;;
32321;SDS011;61553;48.994;8.940;2023-12-14T03:50:32;9.93;;;5.22;;
32321;SDS011;61553;48.994;8.940;2023-12-14T03:52:58;10.27;;;5.00;;
32321;SDS011;61553;48.994;8.940;2023-12-14T03:55:24;8.93;;;5.25;;
32321;SDS011;61553;48.994;8.940;2023-12-14T03:57:50;11.90;;;5.05;;
32321;SDS011;61553;48.994;8.940;2023-12-14T04:00:16;11.45;;;4.97;;
32321;SDS011;61553;48.994;8.940;2023-12-14T04:02:42;10.95;;;5.28;;
32321;SDS011;61553;48.994;8.940;2023-12-14T04:05:08;11.32;;;5.90;;
32321;SDS011;61553;48.994;8.940;2023-12-14T04:07:38;12.45;;;5.88;;
32321;SDS011;61553;48.994;8.940;2023-12-14T04:10:08;11.85;;;5.95;;
32321;SDS011;61553;48.994;8.940;2023-12-14T04:12:35;9.73;;;5.53;;
32321;SDS011;61553;48.994;8.940;2023-12-14T04:15:02;13.30;;;6.63;;
32321;SDS011;61553;48.994;8.940;2023-12-14T04:17:28;12.18;;;5.85;;
32321;SDS011;61553;48.994;8.940;2023-12-14T04:19:55;11.40;;;6.45;;
32321;SDS011;61553;48.994;8.940;2023-12-14T04:22:21;12.50;;;6.63;;
32321;SDS011;61553;48.994;8.940;2023-12-14T04:24:46;17.17;;;7.90;;
32321;SDS011;61553;48.994;8.940;2023-12-14T04:27:12;17.73;;;7.18;;
32321;SDS011;61553;48.994;8.940;2023-12-14T04:29:39;14.68;;;8.02;;
32321;SDS011;61553;48.994;8.940;2023-12-14T04:32:05;13.75;;;8.27;;
32321;SDS011;61553;48.994;8.940;2023-12-14T04:34:31;17.02;;;8.02;;
32321;SDS011;61553;48.994;8.940;2023-12-14T04:36:56;17.40;;;8.77;;
32321;SDS011;61553;48.994;8.940;2023-12-14T04:39:23;14.27;;;8.57;;
32321;SDS011;61553;48.994;8.940;2023-12-14T04:41:50;13.73;;;8.50;;
32321;SDS011;61553;48.994;8.940;2023-12-14T04:44:16;17.00;;;8.20;;
32321;SDS011;61553;48.994;8.940;2023-12-14T04:46:41;12.73;;;9.02;;
32321;SDS011;61553;48.994;8.940;2023-12-14T04:49:07;15.25;;;8.63;;
32321;SDS011;61553;48.994;8.940;2023-12-14T04:51:33;16.15;;;8.70;;
32321;SDS011;61553;48.994;8.940;2023-12-14T04:53:58;12.88;;;7.25;;
32321;SDS011;61553;48.994;8.940;2023-12-14T04:56:24;13.35;;;8.02;;
32321;SDS011;61553;48.994;8.940;2023-12-14T04:58:50;15.10;;;8.57;;
32321;SDS011;61553;48.994;8.940;2023-12-14T05:01:15;13.25;;;8.20;;
32321;SDS011;61553;48.994;8.940;2023-12-14T05:03:41;14.07;;;9.15;;
32321;SDS011;61553;48.994;8.940;2023-12-14T05:06:07;14.65;;;9.05;;
32321;SDS011;61553;48.994;8.940;2023-12-14T05:08:32;16.33;;;8.25;;
32321;SDS011;61553;48.994;8.940;2023-12-14T05:10:58;16.65;;;9.98;;
32321;SDS011;61553;48.994;8.940;2023-12-14T05:13:24;16.33;;;9.30;;
32321;SDS011;61553;48.994;8.940;2023-12-14T05:15:50;15.65;;;9.10;;
32321;SDS011;61553;48.994;8.940;2023-12-14T05:18:17;15.57;;;9.70;;
32321;SDS011;61553;48.994;8.940;2023-12-14T05:20:42;16.08;;;9.95;;
32321;SDS011;61553;48.994;8.940;2023-12-14T05:23:10;15.27;;;9.65;;
32321;SDS011;61553;48.994;8.940;2023-12-14T05:25:36;17.98;;;10.57;;
32321;SDS011;61553;48.994;8.940;2023-12-14T05:28:02;19.15;;;11.70;;
32321;SDS011;61553;48.994;8.940;2023-12-14T05:30:28;26.23;;;14.10;;
32321;SDS011;61553;48.994;8.940;2023-12-14T05:32:54;25.15;;;13.85;;
32321;SDS011;61553;48.994;8.940;2023-12-14T05:35:20;19.20;;;11.07;;
32321;SDS011;61553;48.994;8.940;2023-12-14T05:37:46;18.88;;;11.55;;
32321;SDS011;61553;48.994;8.940;2023-12-14T05:40:12;17.92;;;11.10;;
32321;SDS011;61553;48.994;8.940;2023-12-14T05:42:37;19.15;;;11.63;;
32321;SDS011;61553;48.994;8.940;2023-12-14T05:45:04;23.30;;;12.18;;
32321;SDS011;61553;48.994;8.940;2023-12-14T05:47:30;18.85;;;11.48;;
32321;SDS011;61553;48.994;8.940;2023-12-14T05:49:58;22.85;;;12.65;;
32321;SDS011;61553;48.994;8.940;2023-12-14T05:52:24;26.30;;;14.00;;
32321;SDS011;61553;48.994;8.940;2023-12-14T05:54:49;20.38;;;13.02;;
32321;SDS011;61553;48.994;8.940;2023-12-14T05:57:15;22.95;;;13.85;;
32321;SDS011;61553;48.994;8.940;2023-12-14T05:59:41;23.45;;;12.32;;
32321;SDS011;61553;48.994;8.940;2023-12-14T06:02:07;22.63;;;13.73;;
32321;SDS011;61553;48.994;8.940;2023-12-14T06:04:33;19.98;;;12.77;;
32321;SDS011;61553;48.994;8.940;2023-12-14T06:06:59;22.88;;;13.32;;
32321;SDS011;61553;48.994;8.940;2023-12-14T06:09:24;25.30;;;13.50;;
32321;SDS011;61553;48.994;8.940;2023-12-14T06:11:58;20.38;;;12.35;;
32321;SDS011;61553;48.994;8.940;2023-12-14T06:14:25;23.27;;;13.02;;
32321;SDS011;61553;48.994;8.940;2023-12-14T06:16:51;25.20;;;14.48;;
32321;SDS011;61553;48.994;8.940;2023-12-14T06:19:17;22.88;;;13.90;;
32321;SDS011;61553;48.994;8.940;2023-12-14T06:21:42;23.45;;;13.15;;
32321;SDS011;61553;48.994;8.940;2023-12-14T06:24:08;26.00;;;13.20;;
32321;SDS011;61553;48.994;8.940;2023-12-14T06:26:33;23.65;;;13.30;;
32321;SDS011;61553;48.994;8.940;2023-12-14T06:28:59;27.23;;;13.63;;
32321;SDS011;61553;48.994;8.940;2023-12-14T06:31:25;24.80;;;13.48;;
32321;SDS011;61553;48.994;8.940;2023-12-14T06:33:50;24.08;;;14.02;;
32321;SDS011;61553;48.994;8.940;2023-12-14T06:36:16;24.58;;;14.15;;
32321;SDS011;61553;48.994;8.940;2023-12-14T06:38:42;22.27;;;12.98;;
32321;SDS011;61553;48.994;8.940;2023-12-14T06:41:08;25.52;;;14.68;;
32321;SDS011;61553;48.994;8.940;2023-12-14T06:43:43;25.83;;;14.52;;
32321;SDS011;61553;48.994;8.940;2023-12-14T06:46:09;30.23;;;15.07;;
32321;SDS011;61553;48.994;8.940;2023-12-14T06:48:34;24.75;;;14.85;;
32321;SDS011;61553;48.994;8.940;2023-12-14T06:51:00;24.05;;;13.85;;
32321;SDS011;61553;48.994;8.940;2023-12-14T06:53:26;20.23;;;12.18;;
32321;SDS011;61553;48.994;8.940;2023-12-14T06:55:51;21.50;;;12.85;;
32321;SDS011;61553;48.994;8.940;2023-12-14T06:58:17;20.17;;;13.18;;
32321;SDS011;61553;48.994;8.940;2023-12-14T07:00:43;21.13;;;12.77;;
32321;SDS011;61553;48.994;8.940;2023-12-14T07:03:09;22.45;;;12.55;;
32321;SDS011;61553;48.994;8.940;2023-12-14T07:05:34;21.67;;;14.02;;
32321;SDS011;61553;48.994;8.940;2023-12-14T07:08:01;25.08;;;13.75;;
32321;SDS011;61553;48.994;8.940;2023-12-14T07:10:27;23.48;;;13.65;;
32321;SDS011;61553;48.994;8.940;2023-12-14T07:12:52;23.83;;;13.77;;
32321;SDS011;61553;48.994;8.940;2023-12-14T07:15:18;25.73;;;14.50;;
32321;SDS011;61553;48.994;8.940;2023-12-14T07:17:44;22.65;;;13.80;;
32321;SDS011;61553;48.994;8.940;2023-12-14T07:20:09;27.83;;;14.07;;
32321;SDS011;61553;48.994;8.940;2023-12-14T07:22:36;28.05;;;14.38;;
32321;SDS011;61553;48.994;8.940;2023-12-14T07:25:02;20.85;;;13.10;;
32321;SDS011;61553;48.994;8.940;2023-12-14T07:27:28;31.10;;;15.73;;
32321;SDS011;61553;48.994;8.940;2023-12-14T07:29:54;24.92;;;13.95;;
32321;SDS011;61553;48.994;8.940;2023-12-14T07:32:20;25.25;;;14.10;;
32321;SDS011;61553;48.994;8.940;2023-12-14T07:34:46;24.35;;;14.43;;
32321;SDS011;61553;48.994;8.940;2023-12-14T07:37:12;25.95;;;14.75;;
32321;SDS011;61553;48.994;8.940;2023-12-14T07:39:38;25.50;;;14.98;;
32321;SDS011;61553;48.994;8.940;2023-12-14T07:42:04;44.45;;;21.25;;
32321;SDS011;61553;48.994;8.940;2023-12-14T07:44:30;29.58;;;16.13;;
32321;SDS011;61553;48.994;8.940;2023-12-14T07:46:57;26.50;;;15.10;;
32321;SDS011;61553;48.994;8.940;2023-12-14T07:49:24;25.73;;;14.70;;
32321;SDS011;61553;48.994;8.940;2023-12-14T07:51:50;25.52;;;14.63;;
32321;SDS011;61553;48.994;8.940;2023-12-14T07:54:15;28.33;;;14.80;;
32321;SDS011;61553;48.994;8.940;2023-12-14T07:56:41;25.65;;;14.57;;
32321;SDS011;61553;48.994;8.940;2023-12-14T07:59:07;28.10;;;14.18;;
32321;SDS011;61553;48.994;8.940;2023-12-14T08:01:36;32.90;;;15.73;;
32321;SDS011;61553;48.994;8.940;2023-12-14T08:04:02;27.75;;;14.73;;
32321;SDS011;61553;48.994;8.940;2023-12-14T08:06:28;26.50;;;14.98;;
32321;SDS011;61553;48.994;8.940;2023-12-14T08:08:55;40.80;;;23.25;;
32321;SDS011;61553;48.994;8.940;2023-12-14T08:11:23;31.92;;;17.95;;
32321;SDS011;61553;48.994;8.940;2023-12-14T08:13:49;30.00;;;16.33;;
32321;SDS011;61553;48.994;8.940;2023-12-14T08:16:14;24.70;;;15.30;;
32321;SDS011;61553;48.994;8.940;2023-12-14T08:18:42;28.88;;;16.63;;
32321;SDS011;61553;48.994;8.940;2023-12-14T08:21:10;26.27;;;15.57;;
32321;SDS011;61553;48.994;8.940;2023-12-14T08:23:36;29.88;;;17.17;;
32321;SDS011;61553;48.994;8.940;2023-12-14T08:26:02;27.65;;;16.42;;
32321;SDS011;61553;48.994;8.940;2023-12-14T08:28:27;27.00;;;16.27;;
32321;SDS011;61553;48.994;8.940;2023-12-14T08:30:53;30.15;;;16.33;;
32321;SDS011;61553;48.994;8.940;2023-12-14T08:33:19;25.25;;;15.45;;
32321;SDS011;61553;48.994;8.940;2023-12-14T08:35:44;25.38;;;15.63;;
32321;SDS011;61553;48.994;8.940;2023-12-14T08:38:10;27.50;;;15.35;;
32321;SDS011;61553;48.994;8.940;2023-12-14T08:40:36;24.10;;;12.93;;
32321;SDS011;61553;48.994;8.940;2023-12-14T08:43:02;23.63;;;13.45;;
32321;SDS011;61553;48.994;8.940;2023-12-14T08:45:28;25.35;;;13.48;;
32321;SDS011;61553;48.994;8.940;2023-12-14T08:47:54;22.10;;;13.13;;
32321;SDS011;61553;48.994;8.940;2023-12-14T08:50:20;25.50;;;13.63;;
32321;SDS011;61553;48.994;8.940;2023-12-14T08:52:45;21.77;;;12.55;;
32321;SDS011;61553;48.994;8.940;2023-12-14T08:55:12;21.40;;;13.57;;
32321;SDS011;61553;48.994;8.940;2023-12-14T08:57:38;23.52;;;13.43;;
32321;SDS011;61553;48.994;8.940;2023-12-14T09:00:04;26.35;;;13.52;;
32321;SDS011;61553;48.994;8.940;2023-12-14T09:02:31;22.75;;;13.30;;
32321;SDS011;61553;48.994;8.940;2023-12-14T09:04:57;23.60;;;13.77;;
32321;SDS011;61553;48.994;8.940;2023-12-14T09:07:23;23.70;;;13.98;;
32321;SDS011;61553;48.994;8.940;2023-12-14T09:09:54;24.58;;;13.07;;
32321;SDS011;61553;48.994;8.940;2023-12-14T09:12:19;23.60;;;13.65;;
32321;SDS011;61553;48.994;8.940;2023-12-14T09:14:45;19.35;;;12.85;;
32321;SDS011;61553;48.994;8.940;2023-12-14T09:17:11;23.73;;;12.95;;
32321;SDS011;61553;48.994;8.940;2023-12-14T09:19:37;21.23;;;12.50;;
32321;SDS011;61553;48.994;8.940;2023-12-14T09:22:02;24.00;;;14.95;;
32321;SDS011;61553;48.994;8.940;2023-12-14T09:24:28;20.38;;;12.02;;
32321;SDS011;61553;48.994;8.940;2023-12-14T09:26:54;19.90;;;12.25;;
32321;SDS011;61553;48.994;8.940;2023-12-14T09:29:20;40.03;;;19.48;;
32321;SDS011;61553;48.994;8.940;2023-12-14T09:31:46;46.42;;;20.52;;
32321;SDS011;61553;48.994;8.940;2023-12-14T09:34:12;24.60;;;14.77;;
32321;SDS011;61553;48.994;8.940;2023-12-14T09:36:39;21.98;;;12.05;;
32321;SDS011;61553;48.994;8.940;2023-12-14T09:39:05;19.27;;;11.55;;
32321;SDS011;61553;48.994;8.940;2023-12-14T09:41:36;19.25;;;10.93;;
32321;SDS011;61553;48.994;8.940;2023-12-14T09:44:03;20.23;;;10.30;;
32321;SDS011;61553;48.994;8.940;2023-12-14T09:46:30;20.52;;;10.55;;
32321;SDS011;61553;48.994;8.940;2023-12-14T09:48:57;16.80;;;10.02;;
32321;SDS011;61553;48.994;8.940;2023-12-14T09:51:24;18.83;;;10.20;;
32321;SDS011;61553;48.994;8.940;2023-12-14T09:53:51;17.52;;;10.35;;
32321;SDS011;61553;48.994;8.940;2023-12-14T09:56:23;18.52;;;11.38;;
32321;SDS011;61553;48.994;8.940;2023-12-14T09:58:49;16.73;;;8.68;;
32321;SDS011;61553;48.994;8.940;2023-12-14T10:01:21;14.95;;;8.25;;
32321;SDS011;61553;48.994;8.940;2023-12-14T10:03:48;15.27;;;8.38;;
32321;SDS011;61553;48.994;8.940;2023-12-14T10:06:13;12.98;;;7.55;;
32321;SDS011;61553;48.994;8.940;2023-12-14T10:08:39;13.13;;;7.95;;
32321;SDS011;61553;48.994;8.940;2023-12-14T10:11:05;14.98;;;8.55;;
32321;SDS011;61553;48.994;8.940;2023-12-14T10:13:40;13.75;;;8.35;;
32321;SDS011;61553;48.994;8.940;2023-12-14T10:16:07;16.10;;;9.32;;
32321;SDS011;61553;48.994;8.940;2023-12-14T10:18:33;15.68;;;9.02;;
32321;SDS011;61553;48.994;8.940;2023-12-14T10:21:01;18.35;;;9.60;;
32321;SDS011;61553;48.994;8.940;2023-12-14T10:23:27;16.23;;;8.77;;
32321;SDS011;61553;48.994;8.940;2023-12-14T10:25:54;16.20;;;8.65;;
32321;SDS011;61553;48.994;8.940;2023-12-14T10:28:20;18.52;;;9.98;;
32321;SDS011;61553;48.994;8.940;2023-12-14T10:30:47;14.35;;;9.00;;
32321;SDS011;61553;48.994;8.940;2023-12-14T10:33:12;16.10;;;8.80;;
32321;SDS011;61553;48.994;8.940;2023-12-14T10:35:41;16.95;;;9.15;;
32321;SDS011;61553;48.994;8.940;2023-12-14T10:38:08;18.67;;;10.80;;
32321;SDS011;61553;48.994;8.940;2023-12-14T10:40:36;16.60;;;9.65;;
32321;SDS011;61553;48.994;8.940;2023-12-14T10:43:06;15.15;;;8.70;;
32321;SDS011;61553;48.994;8.940;2023-12-14T10:45:32;15.02;;;9.00;;
32321;SDS011;61553;48.994;8.940;2023-12-14T10:47:59;19.52;;;9.48;;
32321;SDS011;61553;48.994;8.940;2023-12-14T10:50:26;14.93;;;9.02;;
32321;SDS011;61553;48.994;8.940;2023-12-14T10:52:56;17.17;;;9.13;;
32321;SDS011;61553;48.994;8.940;2023-12-14T10:55:25;18.13;;;9.63;;
32321;SDS011;61553;48.994;8.940;2023-12-14T10:57:59;16.45;;;8.90;;
32321;SDS011;61553;48.994;8.940;2023-12-14T11:00:26;17.63;;;8.00;;
32321;SDS011;61553;48.994;8.940;2023-12-14T11:02:51;18.48;;;7.95;;
32321;SDS011;61553;48.994;8.940;2023-12-14T11:05:18;13.52;;;8.07;;
32321;SDS011;61553;48.994;8.940;2023-12-14T11:10:28;16.85;;;7.47;;
32321;SDS011;61553;48.994;8.940;2023-12-14T11:13:11;14.27;;;7.88;;
32321;SDS011;61553;48.994;8.940;2023-12-14T11:15:46;12.90;;;7.55;;
32321;SDS011;61553;48.994;8.940;2023-12-14T11:18:20;14.38;;;7.53;;
32321;SDS011;61553;48.994;8.940;2023-12-14T11:20:50;12.18;;;7.25;;
32321;SDS011;61553;48.994;8.940;2023-12-14T11:26:09;12.37;;;7.13;;
32321;SDS011;61553;48.994;8.940;2023-12-14T11:28:36;12.18;;;6.80;;
32321;SDS011;61553;48.994;8.940;2023-12-14T11:31:11;11.85;;;6.13;;
32321;SDS011;61553;48.994;8.940;2023-12-14T11:33:37;12.50;;;6.32;;
32321;SDS011;61553;48.994;8.940;2023-12-14T11:36:03;10.73;;;5.30;;
32321;SDS011;61553;48.994;8.940;2023-12-14T11:38:30;12.88;;;6.65;;
32321;SDS011;61553;48.994;8.940;2023-12-14T11:40:56;11.40;;;7.00;;
32321;SDS011;61553;48.994;8.940;2023-12-14T11:43:23;10.65;;;4.72;;
32321;SDS011;61553;48.994;8.940;2023-12-14T11:45:51;7.47;;;4.07;;
32321;SDS011;61553;48.994;8.940;2023-12-14T11:48:18;19.80;;;10.82;;
32321;SDS011;61553;48.994;8.940;2023-12-14T11:50:45;16.98;;;8.68;;
32321;SDS011;61553;48.994;8.940;2023-12-14T11:53:12;8.07;;;4.85;;
32321;SDS011;61553;48.994;8.940;2023-12-14T11:55:39;10.40;;;5.43;;
32321;SDS011;61553;48.994;8.940;2023-12-14T11:58:06;7.20;;;4.28;;
32321;SDS011;61553;48.994;8.940;2023-12-14T12:00:33;9.07;;;4.18;;
32321;SDS011;61553;48.994;8.940;2023-12-14T12:05:38;7.70;;;3.70;;
32321;SDS011;61553;48.994;8.940;2023-12-14T12:08:14;8.98;;;4.22;;
32321;SDS011;61553;48.994;8.940;2023-12-14T12:10:43;7.18;;;4.30;;
32321;SDS011;61553;48.994;8.940;2023-12-14T12:13:13;9.90;;;4.70;;
32321;SDS011;61553;48.994;8.940;2023-12-14T12:18:09;7.32;;;4.70;;
32321;SDS011;61553;48.994;8.940;2023-12-14T12:20:36;8.73;;;4.65;;
32321;SDS011;61553;48.994;8.940;2023-12-14T12:23:02;10.02;;;5.20;;
32321;SDS011;61553;48.994;8.940;2023-12-14T12:25:29;7.45;;;4.70;;
32321;SDS011;61553;48.994;8.940;2023-12-14T12:27:58;8.82;;;3.92;;
32321;SDS011;61553;48.994;8.940;2023-12-14T12:30:25;9.30;;;4.13;;
32321;SDS011;61553;48.994;8.940;2023-12-14T12:32:51;6.68;;;4.15;;
32321;SDS011;61553;48.994;8.940;2023-12-14T12:35:20;6.63;;;3.55;;
32321;SDS011;61553;48.994;8.940;2023-12-14T12:37:46;8.70;;;3.90;;
32321;SDS011;61553;48.994;8.940;2023-12-14T12:40:18;7.88;;;3.95;;
32321;SDS011;61553;48.994;8.940;2023-12-14T12:42:45;7.38;;;4.15;;
32321;SDS011;61553;48.994;8.940;2023-12-14T12:45:13;15.63;;;8.13;;
32321;SDS011;61553;48.994;8.940;2023-12-14T12:47:39;13.25;;;6.47;;
32321;SDS011;61553;48.994;8.940;2023-12-14T12:50:05;11.57;;;6.60;;
32321;SDS011;61553;48.994;8.940;2023-12-14T12:52:31;12.95;;;6.95;;
32321;SDS011;61553;48.994;8.940;2023-12-14T12:54:57;12.02;;;6.78;;
32321;SDS011;61553;48.994;8.940;2023-12-14T12:57:23;12.20;;;7.47;;
32321;SDS011;61553;48.994;8.940;2023-12-14T12:59:48;10.38;;;6.05;;
32321;SDS011;61553;48.994;8.940;2023-12-14T13:02:14;8.48;;;5.00;;
32321;SDS011;61553;48.994;8.940;2023-12-14T13:04:39;7.85;;;4.50;;
32321;SDS011;61553;48.994;8.940;2023-12-14T13:07:05;9.23;;;5.13;;
32321;SDS011;61553;48.994;8.940;2023-12-14T13:09:31;10.07;;;5.25;;
32321;SDS011;61553;48.994;8.940;2023-12-14T13:11:57;11.30;;;6.10;;
32321;SDS011;61553;48.994;8.940;2023-12-14T13:14:22;14.98;;;7.90;;
32321;SDS011;61553;48.994;8.940;2023-12-14T13:16:48;19.25;;;10.10;;
32321;SDS011;61553;48.994;8.940;2023-12-14T13:19:14;23.15;;;12.15;;
32321;SDS011;61553;48.994;8.940;2023-12-14T13:21:40;23.30;;;11.13;;
32321;SDS011;61553;48.994;8.940;2023-12-14T13:24:06;20.85;;;10.32;;
32321;SDS011;61553;48.994;8.940;2023-12-14T13:26:32;18.05;;;10.02;;
32321;SDS011;61553;48.994;8.940;2023-12-14T13:28:58;16.25;;;9.15;;
32321;SDS011;61553;48.994;8.940;2023-12-14T13:31:24;15.40;;;8.73;;
32321;SDS011;61553;48.994;8.940;2023-12-14T13:33:50;14.63;;;7.75;;
32321;SDS011;61553;48.994;8.940;2023-12-14T13:36:15;16.63;;;8.60;;
32321;SDS011;61553;48.994;8.940;2023-12-14T13:38:41;14.38;;;7.40;;
32321;SDS011;61553;48.994;8.940;2023-12-14T13:41:07;15.40;;;8.38;;
32321;SDS011;61553;48.994;8.940;2023-12-14T13:43:35;13.90;;;8.35;;
32321;SDS011;61553;48.994;8.940;2023-12-14T13:46:00;16.13;;;8.00;;
32321;SDS011;61553;48.994;8.940;2023-12-14T13:48:26;14.38;;;7.68;;
32321;SDS011;61553;48.994;8.940;2023-12-14T13:50:53;14.77;;;8.68;;
32321;SDS011;61553;48.994;8.940;2023-12-14T13:53:20;15.75;;;8.63;;
32321;SDS011;61553;48.994;8.940;2023-12-14T13:55:46;14.35;;;7.70;;
32321;SDS011;61553;48.994;8.940;2023-12-14T13:58:12;17.70;;;9.70;;
32321;SDS011;61553;48.994;8.940;2023-12-14T14:00:38;13.57;;;8.48;;
32321;SDS011;61553;48.994;8.940;2023-12-14T14:03:04;13.65;;;8.25;;
32321;SDS011;61553;48.994;8.940;2023-12-14T14:05:30;24.15;;;10.85;;
32321;SDS011;61553;48.994;8.940;2023-12-14T14:07:56;17.50;;;9.73;;
32321;SDS011;61553;48.994;8.940;2023-12-14T14:10:22;18.73;;;10.48;;
32321;SDS011;61553;48.994;8.940;2023-12-14T14:12:48;21.52;;;10.05;;
32321;SDS011;61553;48.994;8.940;2023-12-14T14:15:14;16.30;;;8.90;;
32321;SDS011;61553;48.994;8.940;2023-12-14T14:17:39;15.93;;;9.35;;
32321;SDS011;61553;48.994;8.940;2023-12-14T14:20:05;17.30;;;9.80;;
32321;SDS011;61553;48.994;8.940;2023-12-14T14:22:32;19.00;;;11.27;;
32321;SDS011;61553;48.994;8.940;2023-12-14T14:24:59;20.67;;;12.15;;
32321;SDS011;61553;48.994;8.940;2023-12-14T14:27:25;18.95;;;11.13;;
32321;SDS011;61553;48.994;8.940;2023-12-14T14:29:50;18.10;;;10.98;;
32321;SDS011;61553;48.994;8.940;2023-12-14T14:32:19;18.20;;;9.25;;
32321;SDS011;61553;48.994;8.940;2023-12-14T14:34:44;16.70;;;9.27;;
32321;SDS011;61553;48.994;8.940;2023-12-14T14:37:10;17.23;;;9.35;;
32321;SDS011;61553;48.994;8.940;2023-12-14T14:39:36;15.32;;;8.40;;
32321;SDS011;61553;48.994;8.940;2023-12-14T14:42:04;19.27;;;9.68;;